Time;durP1;ratioP1;P1;durP2;ratioP2;P2;SDS_P1;SDS_P2;PMS_P1;PMS_P2;Temp;Humidity;BMP_temperature;BMP_pressure;BME280_temperature;BME280_humidity;BME280_pressure;Samples;Min_cycle;Max_cycle;Signal;HPM_P1;HPM_P2
2024/01/11 00:02:23;;;;;;;45.22;22.02;;;-3.70;99.90;;;;;;5061235;28;20049;-83
2024/01/11 00:04:49;;;;;;;44.38;22.63;;;-3.70;99.90;;;;;;5070796;28;20109;-82
2024/01/11 00:07:15;;;;;;;41.42;20.92;;;-3.40;99.90;;;;;;5062671;28;20052;-82
2024/01/11 00:09:42;;;;;;;45.72;23.10;;;-3.40;99.90;;;;;;5068179;28;20120;-82
2024/01/11 00:12:08;;;;;;;45.17;23.55;;;-3.80;99.90;;;;;;5059421;28;20052;-81
2024/01/11 00:14:35;;;;;;;49.05;21.67;;;-2.80;99.90;;;;;;5057640;28;20045;-82
2024/01/11 00:17:01;;;;;;;45.83;22.27;;;-3.80;99.90;;;;;;5058066;28;20044;-82
2024/01/11 00:19:27;;;;;;;45.50;21.60;;;-2.40;99.90;;;;;;5071924;28;20052;-82
2024/01/11 00:21:53;;;;;;;53.35;22.65;;;-3.60;99.90;;;;;;5069441;28;20468;-82
2024/01/11 00:24:18;;;;;;;44.88;20.70;;;-3.30;99.90;;;;;;5066655;28;20516;-82
2024/01/11 00:26:44;;;;;;;50.35;22.92;;;-3.80;99.90;;;;;;5061443;28;20045;-81
2024/01/11 00:29:10;;;;;;;48.33;23.02;;;-3.80;99.90;;;;;;5070560;28;20111;-81
2024/01/11 00:31:36;;;;;;;44.78;21.42;;;-4.10;99.90;;;;;;5055452;28;20447;-82
2024/01/11 00:34:01;;;;;;;48.42;22.05;;;-3.80;99.90;;;;;;5067773;28;20041;-82
2024/01/11 00:36:28;;;;;;;47.00;21.63;;;-2.60;99.90;;;;;;5054834;28;20087;-81
2024/01/11 00:38:54;;;;;;;49.55;22.52;;;-3.80;99.90;;;;;;5056013;28;20086;-81
2024/01/11 00:41:20;;;;;;;47.90;22.08;;;-3.80;99.90;;;;;;5055914;28;20047;-82
2024/01/11 00:43:46;;;;;;;47.35;21.48;;;-3.80;99.90;;;;;;5061633;28;20044;-81
2024/01/11 00:46:12;;;;;;;49.30;22.77;;;-3.80;99.90;;;;;;5070284;28;20644;-82
2024/01/11 00:48:37;;;;;;;45.10;22.00;;;-3.60;99.90;;;;;;5056007;28;20045;-81
2024/01/11 00:51:06;;;;;;;42.92;22.23;;;-3.80;99.90;;;;;;5056279;28;20132;-81
2024/01/11 00:53:33;;;;;;;41.47;20.20;;;-3.80;99.90;;;;;;5067213;28;20044;-82
2024/01/11 00:56:01;;;;;;;50.80;22.95;;;-3.80;99.90;;;;;;5061672;28;20075;-81
2024/01/11 00:58:27;;;;;;;45.10;22.60;;;-3.70;99.90;;;;;;5060403;28;20068;-81
2024/01/11 01:00:54;;;;;;;48.80;22.00;;;-3.80;99.90;;;;;;5062109;28;20044;-81
2024/01/11 01:03:23;;;;;;;51.22;23.50;;;-3.50;99.90;;;;;;5062178;28;20052;-81
2024/01/11 01:05:48;;;;;;;49.42;22.50;;;-3.80;99.90;;;;;;5055659;28;20051;-81
2024/01/11 01:08:14;;;;;;;53.17;23.02;;;-3.40;99.90;;;;;;5055462;28;20037;-82
2024/01/11 01:10:40;;;;;;;49.90;22.60;;;-3.80;99.90;;;;;;5061857;28;20056;-81
2024/01/11 01:13:05;;;;;;;45.95;22.83;;;-3.80;99.90;;;;;;5075339;28;20051;-81
2024/01/11 01:15:31;;;;;;;50.53;23.33;;;-3.80;99.90;;;;;;5075375;28;20045;-82
2024/01/11 01:17:57;;;;;;;49.70;24.48;;;-3.80;99.90;;;;;;5059268;28;20052;-81
2024/01/11 01:20:23;;;;;;;52.42;23.67;;;-3.80;99.90;;;;;;5067967;28;20172;-81
2024/01/11 01:22:49;;;;;;;46.42;20.90;;;-3.60;99.90;;;;;;5063539;28;20055;-81
2024/01/11 01:25:15;;;;;;;59.05;26.33;;;-3.80;99.90;;;;;;5060154;28;20041;-82
2024/01/11 01:27:41;;;;;;;49.35;23.70;;;-3.80;99.90;;;;;;5059016;28;20075;-83
2024/01/11 01:30:07;;;;;;;54.88;23.50;;;-3.80;99.90;;;;;;5056480;28;20045;-81
2024/01/11 01:32:33;;;;;;;47.13;21.98;;;-3.80;99.90;;;;;;5060634;28;20076;-81
2024/01/11 01:34:58;;;;;;;56.45;24.73;;;-3.20;99.90;;;;;;5056812;28;20492;-81
2024/01/11 01:37:24;;;;;;;53.25;24.85;;;-3.80;99.90;;;;;;5060200;28;20418;-81
2024/01/11 01:39:49;;;;;;;52.08;24.23;;;-3.80;99.90;;;;;;5066136;28;20403;-81
2024/01/11 01:42:15;;;;;;;49.15;23.88;;;-3.80;99.90;;;;;;5062526;28;20049;-81
2024/01/11 01:44:41;;;;;;;52.25;23.77;;;-3.60;99.90;;;;;;5055145;28;20052;-81
2024/01/11 01:47:09;;;;;;;45.58;21.38;;;-3.90;99.90;;;;;;5054729;28;20095;-81
2024/01/11 01:49:36;;;;;;;55.95;24.48;;;-3.90;99.90;;;;;;5057702;28;20087;-81
2024/01/11 01:52:03;;;;;;;46.58;22.00;;;-3.90;99.90;;;;;;5054254;28;20080;-81
2024/01/11 01:54:30;;;;;;;54.88;23.48;;;-3.90;99.90;;;;;;5054754;28;20049;-81
2024/01/11 01:56:56;;;;;;;47.03;24.08;;;-2.50;99.90;;;;;;5071918;28;20097;-82
2024/01/11 01:59:24;;;;;;;49.75;22.48;;;-3.10;99.90;;;;;;5060409;28;20092;-81
2024/01/11 02:01:50;;;;;;;53.70;24.63;;;-3.90;99.90;;;;;;5070538;28;20120;-82
2024/01/11 02:04:16;;;;;;;52.35;23.13;;;-2.90;99.90;;;;;;5074060;28;20047;-81
2024/01/11 02:06:47;;;;;;;50.55;24.13;;;-3.90;99.90;;;;;;5069912;28;20048;-82
2024/01/11 02:09:13;;;;;;;50.72;22.83;;;-3.90;99.90;;;;;;5063770;28;20045;-82
2024/01/11 02:11:40;;;;;;;48.92;23.40;;;-3.90;99.90;;;;;;5072805;28;20044;-81
2024/01/11 02:14:07;;;;;;;47.80;21.30;;;-3.90;99.90;;;;;;5065041;28;20408;-81
2024/01/11 02:16:33;;;;;;;51.38;22.60;;;-4.00;99.90;;;;;;5056178;28;20416;-83
2024/01/11 02:18:59;;;;;;;51.10;23.67;;;-3.80;99.90;;;;;;5053829;28;20066;-81
2024/01/11 02:21:27;;;;;;;55.17;24.20;;;-4.00;99.90;;;;;;5052185;28;20140;-81
2024/01/11 02:24:05;;;;;;;59.38;25.40;;;-4.00;99.90;;;;;;5059632;28;20048;-81
2024/01/11 02:26:31;;;;;;;56.03;23.27;;;-4.00;99.90;;;;;;5054979;28;20127;-81
2024/01/11 02:28:56;;;;;;;52.42;25.65;;;-3.60;99.90;;;;;;5064005;28;20124;-81
2024/01/11 02:31:23;;;;;;;53.08;24.38;;;-4.00;99.90;;;;;;5053321;28;20041;-81
2024/01/11 02:33:49;;;;;;;56.30;24.95;;;-4.00;99.90;;;;;;5059265;28;20487;-81
2024/01/11 02:36:15;;;;;;;52.95;22.63;;;-4.00;99.90;;;;;;5058646;28;20044;-81
2024/01/11 02:38:42;;;;;;;52.03;24.98;;;-4.00;99.90;;;;;;5073362;28;20123;-81
2024/01/11 02:41:08;;;;;;;49.33;24.17;;;-3.60;99.90;;;;;;5064610;28;20091;-82
2024/01/11 02:43:37;;;;;;;47.53;22.15;;;-4.00;99.90;;;;;;5053504;28;20424;-81
2024/01/11 02:46:03;;;;;;;48.10;21.67;;;-4.00;99.90;;;;;;5053422;28;20041;-81
2024/01/11 02:48:31;;;;;;;52.40;24.65;;;-4.10;99.90;;;;;;5055356;28;20120;-81
2024/01/11 02:50:57;;;;;;;49.63;22.48;;;-4.10;99.90;;;;;;5071591;28;20083;-81
2024/01/11 02:53:23;;;;;;;56.05;25.08;;;-4.10;99.90;;;;;;5068422;28;20041;-81
2024/01/11 02:55:50;;;;;;;47.10;22.65;;;-3.30;99.90;;;;;;5071118;28;20048;-82
2024/01/11 02:58:16;;;;;;;51.90;23.70;;;-4.10;99.90;;;;;;5064085;28;20110;-83
2024/01/11 03:00:42;;;;;;;53.75;24.30;;;-4.10;99.90;;;;;;5057604;28;20153;-82
2024/01/11 03:03:07;;;;;;;46.20;22.67;;;-4.10;99.90;;;;;;5067531;28;20044;-83
2024/01/11 03:05:33;;;;;;;44.70;21.17;;;-4.20;99.90;;;;;;5060582;28;20089;-82
2024/01/11 03:07:59;;;;;;;55.60;24.77;;;-4.20;99.90;;;;;;5061706;28;20484;-81
2024/01/11 03:10:24;;;;;;;51.13;23.30;;;-4.10;99.90;;;;;;5053296;28;20052;-81
2024/01/11 03:12:50;;;;;;;51.40;23.40;;;-4.10;99.90;;;;;;5059636;28;20051;-81
2024/01/11 03:15:16;;;;;;;48.25;22.13;;;-4.10;99.90;;;;;;5058202;28;20127;-81
2024/01/11 03:17:42;;;;;;;54.03;24.98;;;-4.10;99.90;;;;;;5053526;28;20044;-81
2024/01/11 03:20:08;;;;;;;52.05;23.48;;;-4.10;99.90;;;;;;5052954;28;20041;-81
2024/01/11 03:22:33;;;;;;;56.40;24.17;;;-4.10;99.90;;;;;;5051587;28;20064;-80
2024/01/11 03:24:59;;;;;;;48.72;22.27;;;-4.20;99.90;;;;;;5066024;28;20052;-81
2024/01/11 03:27:25;;;;;;;53.70;24.08;;;-4.20;99.90;;;;;;5052146;28;20488;-81
2024/01/11 03:29:50;;;;;;;59.50;26.17;;;-4.20;99.90;;;;;;5034983;28;20041;-81
2024/01/11 03:32:16;;;;;;;54.42;23.77;;;-4.20;99.90;;;;;;5052740;28;20048;-81
2024/01/11 03:34:42;;;;;;;53.03;23.55;;;-4.20;99.90;;;;;;5066201;28;20051;-81
2024/01/11 03:37:07;;;;;;;51.28;24.45;;;-4.20;99.90;;;;;;5053343;28;20047;-81
2024/01/11 03:39:35;;;;;;;54.10;24.05;;;-4.20;99.90;;;;;;5053128;28;20044;-82
2024/01/11 03:42:00;;;;;;;49.17;21.42;;;-3.80;99.90;;;;;;5052929;28;20045;-81
2024/01/11 03:44:26;;;;;;;50.60;22.73;;;-4.20;99.90;;;;;;5054368;28;20041;-83
2024/01/11 03:46:52;;;;;;;45.20;21.00;;;-4.30;99.90;;;;;;5052812;28;20389;-81
2024/01/11 03:49:17;;;;;;;54.78;23.00;;;-3.30;99.90;;;;;;5057836;28;20381;-80
2024/01/11 03:51:44;;;;;;;53.60;24.38;;;-4.30;99.90;;;;;;5072601;28;20468;-81
2024/01/11 03:54:10;;;;;;;49.67;23.00;;;-3.40;99.90;;;;;;5052721;28;20798;-81
2024/01/11 03:56:41;;;;;;;50.58;21.85;;;-3.60;99.90;;;;;;5064582;28;20084;-81
2024/01/11 03:59:07;;;;;;;49.85;23.25;;;-4.30;99.90;;;;;;5052943;28;20049;-81
2024/01/11 04:01:33;;;;;;;58.35;23.48;;;-4.30;99.90;;;;;;5055539;28;20076;-81
2024/01/11 04:03:59;;;;;;;54.20;24.45;;;-2.90;99.90;;;;;;5069773;28;20190;-81
2024/01/11 04:06:25;;;;;;;50.45;22.85;;;-4.30;99.90;;;;;;5068339;28;20119;-81
2024/01/11 04:08:51;;;;;;;50.90;23.05;;;-4.00;99.90;;;;;;5059301;28;20041;-81
2024/01/11 04:11:17;;;;;;;51.53;22.33;;;-4.30;99.90;;;;;;5048941;28;20075;-81
2024/01/11 04:13:43;;;;;;;48.72;23.88;;;-3.50;99.90;;;;;;5055579;28;20056;-82
2024/01/11 04:16:10;;;;;;;49.35;22.60;;;-4.30;99.90;;;;;;5068062;28;20048;-81
2024/01/11 04:18:35;;;;;;;50.38;22.98;;;-4.40;99.90;;;;;;5070741;28;20963;-82
2024/01/11 04:21:01;;;;;;;54.42;24.75;;;-4.30;99.90;;;;;;5054777;28;20088;-80
2024/01/11 04:23:27;;;;;;;51.97;22.92;;;-3.90;99.90;;;;;;5054377;28;20064;-81
2024/01/11 04:25:52;;;;;;;50.10;23.00;;;-4.40;99.90;;;;;;5068566;28;20076;-80
2024/01/11 04:28:18;;;;;;;51.47;24.45;;;-4.40;99.90;;;;;;5055082;28;20421;-82
2024/01/11 04:30:44;;;;;;;49.03;21.40;;;-4.00;99.90;;;;;;5054608;28;20051;-81
2024/01/11 04:33:10;;;;;;;53.22;24.05;;;-4.40;99.90;;;;;;5054467;28;20052;-80
2024/01/11 04:35:36;;;;;;;52.70;24.27;;;-4.40;99.90;;;;;;5058646;28;20055;-81
2024/01/11 04:38:02;;;;;;;55.83;23.52;;;-4.40;99.90;;;;;;5042717;28;20053;-81
2024/01/11 04:40:28;;;;;;;49.88;23.33;;;-4.40;99.90;;;;;;5070049;28;20828;-81
2024/01/11 04:42:53;;;;;;;57.40;24.58;;;-4.40;99.90;;;;;;5038006;28;20063;-81
2024/01/11 04:45:19;;;;;;;55.05;23.95;;;-4.40;99.90;;;;;;5067135;28;20142;-80
2024/01/11 04:47:45;;;;;;;51.72;23.80;;;-4.30;99.90;;;;;;5075797;28;20044;-80
2024/01/11 04:50:15;;;;;;;55.78;23.48;;;-4.30;99.90;;;;;;5071681;28;20044;-80
2024/01/11 04:52:40;;;;;;;55.10;23.77;;;-4.30;99.90;;;;;;5055060;28;20131;-81
2024/01/11 04:55:06;;;;;;;55.60;24.05;;;-4.20;99.90;;;;;;5049044;28;20139;-80
2024/01/11 04:57:32;;;;;;;50.00;22.80;;;-4.20;99.90;;;;;;5054457;28;20141;-80
2024/01/11 04:59:58;;;;;;;53.05;24.15;;;-3.00;99.90;;;;;;5066788;28;20045;-80
2024/01/11 05:02:23;;;;;;;54.95;23.42;;;-4.10;99.90;;;;;;5054538;28;20047;-81
2024/01/11 05:04:49;;;;;;;57.40;26.60;;;-4.00;99.90;;;;;;5058238;28;20041;-81
2024/01/11 05:07:15;;;;;;;53.22;24.33;;;-3.60;99.90;;;;;;5054433;28;20045;-81
2024/01/11 05:09:41;;;;;;;57.28;25.83;;;-4.00;99.90;;;;;;5068142;28;20498;-80
2024/01/11 05:12:07;;;;;;;54.65;26.10;;;-3.50;99.90;;;;;;5053546;28;20396;-81
2024/01/11 05:14:33;;;;;;;53.22;23.65;;;-3.90;99.90;;;;;;5065971;28;20182;-81
2024/01/11 05:16:59;;;;;;;56.78;24.67;;;-3.90;99.90;;;;;;5037735;28;20053;-81
2024/01/11 05:19:24;;;;;;;55.72;25.52;;;-3.20;99.90;;;;;;5061974;28;20048;-81
2024/01/11 05:21:50;;;;;;;59.58;26.15;;;-3.80;99.90;;;;;;5053603;28;20064;-81
2024/01/11 05:24:16;;;;;;;53.45;23.00;;;-3.80;99.90;;;;;;5057896;28;21084;-81
2024/01/11 05:26:41;;;;;;;58.65;25.55;;;-2.20;99.90;;;;;;5064055;28;20045;-81
2024/01/11 05:29:07;;;;;;;55.50;26.00;;;-3.50;99.90;;;;;;5061514;28;20056;-80
2024/01/11 05:31:33;;;;;;;53.63;25.02;;;-3.00;99.90;;;;;;5056774;28;20067;-81
2024/01/11 05:33:58;;;;;;;57.55;25.23;;;-3.70;99.90;;;;;;5070304;28;20079;-81
2024/01/11 05:36:24;;;;;;;59.25;26.88;;;-3.60;99.90;;;;;;5037341;28;20040;-81
2024/01/11 05:38:50;;;;;;;49.03;22.58;;;-3.70;99.90;;;;;;5054283;28;20098;-80
2024/01/11 05:41:15;;;;;;;54.90;25.30;;;-3.60;99.90;;;;;;5067807;28;20086;-81
2024/01/11 05:43:42;;;;;;;51.58;24.58;;;-3.60;99.90;;;;;;5061740;28;20419;-83
2024/01/11 05:46:08;;;;;;;65.45;26.55;;;-3.00;99.90;;;;;;5061969;28;20063;-81
2024/01/11 05:48:34;;;;;;;53.35;25.17;;;-3.60;99.90;;;;;;5074680;28;20484;-81
2024/01/11 05:51:00;;;;;;;59.65;26.70;;;-2.80;99.90;;;;;;5051050;28;20048;-82
2024/01/11 05:53:27;;;;;;;65.03;27.35;;;-3.50;99.90;;;;;;5053319;28;20390;-81
2024/01/11 05:55:53;;;;;;;58.58;26.58;;;-3.50;99.90;;;;;;5049041;28;20505;-81
2024/01/11 05:58:19;;;;;;;58.58;25.92;;;-3.40;99.90;;;;;;5043980;28;20128;-81
2024/01/11 06:00:45;;;;;;;66.47;27.70;;;-3.30;99.90;;;;;;5036604;28;20137;-81
2024/01/11 06:03:15;;;;;;;63.15;27.40;;;-3.10;99.90;;;;;;5052265;28;20443;-81
2024/01/11 06:05:40;;;;;;;67.03;29.20;;;-3.40;99.90;;;;;;5063879;28;20057;-81
2024/01/11 06:08:06;;;;;;;56.53;27.02;;;-3.30;99.90;;;;;;5052252;28;20102;-81
2024/01/11 06:10:32;;;;;;;70.32;29.88;;;-3.30;99.90;;;;;;5058714;28;20049;-78
2024/01/11 06:12:58;;;;;;;62.58;28.33;;;-3.30;99.90;;;;;;5053902;28;20060;-81
2024/01/11 06:15:24;;;;;;;65.47;31.55;;;-3.30;99.90;;;;;;5059266;28;20041;-80
2024/01/11 06:17:52;;;;;;;74.72;32.03;;;-3.20;99.90;;;;;;5060816;28;20048;-80
2024/01/11 06:20:18;;;;;;;60.72;26.42;;;-3.20;99.90;;;;;;5046095;28;20081;-80
2024/01/11 06:22:44;;;;;;;52.80;25.55;;;-2.60;99.90;;;;;;5074022;28;20056;-81
2024/01/11 06:25:09;;;;;;;56.83;26.30;;;-3.20;99.90;;;;;;5061324;28;20056;-80
2024/01/11 06:27:35;;;;;;;56.83;26.42;;;-3.00;99.90;;;;;;5056363;28;20067;-80
2024/01/11 06:30:01;;;;;;;56.58;24.65;;;-3.10;99.90;;;;;;5066812;28;20052;-81
2024/01/11 06:32:27;;;;;;;53.17;24.30;;;-3.10;99.90;;;;;;5056135;28;20028;-80
2024/01/11 06:34:53;;;;;;;59.80;26.90;;;-1.80;99.90;;;;;;5059285;28;20045;-80
2024/01/11 06:37:19;;;;;;;65.60;28.58;;;-3.00;99.90;;;;;;5052957;28;20045;-81
2024/01/11 06:39:45;;;;;;;54.65;26.08;;;-3.00;99.90;;;;;;5052946;28;20055;-80
2024/01/11 06:42:11;;;;;;;55.00;24.27;;;-3.00;99.90;;;;;;5053773;28;20041;-79
2024/01/11 06:44:36;;;;;;;56.20;24.85;;;-2.70;99.90;;;;;;5053651;28;20571;-80
2024/01/11 06:47:03;;;;;;;64.55;27.08;;;-2.40;99.90;;;;;;5067333;28;20473;-81
2024/01/11 06:49:29;;;;;;;57.33;25.77;;;-2.90;99.90;;;;;;5035881;28;20056;-79
2024/01/11 06:51:56;;;;;;;62.72;28.05;;;-2.90;99.90;;;;;;5051520;28;20041;-80
2024/01/11 06:54:22;;;;;;;57.47;26.55;;;-2.10;99.90;;;;;;5052696;28;20044;-80
2024/01/11 06:56:48;;;;;;;49.78;22.88;;;-2.30;99.90;;;;;;5053935;28;20182;-82
2024/01/11 06:59:14;;;;;;;59.92;27.52;;;-1.50;99.90;;;;;;5048883;28;20045;-79
2024/01/11 07:01:40;;;;;;;65.15;27.02;;;-2.80;99.90;;;;;;5057170;28;20384;-82
2024/01/11 07:04:06;;;;;;;61.13;28.52;;;-1.30;99.90;;;;;;5065248;28;20045;-78
2024/01/11 07:06:32;;;;;;;60.42;26.90;;;-2.50;99.90;;;;;;5053239;28;20053;-79
2024/01/11 07:08:58;;;;;;;56.58;25.65;;;-1.90;99.90;;;;;;5073199;28;20040;-79
2024/01/11 07:11:23;;;;;;;67.18;28.60;;;-2.70;99.90;;;;;;5069270;28;20121;-80
2024/01/11 07:13:49;;;;;;;62.35;26.63;;;-2.70;99.90;;;;;;5065116;28;20036;-80
2024/01/11 07:16:15;;;;;;;61.45;25.40;;;-2.70;99.90;;;;;;5052634;28;20052;-80
2024/01/11 07:18:40;;;;;;;50.95;25.20;;;-2.60;99.90;;;;;;5069327;28;20432;-81
2024/01/11 07:21:06;;;;;;;65.45;29.58;;;-2.70;99.90;;;;;;5060802;28;20103;-79
2024/01/11 07:23:32;;;;;;;54.50;25.52;;;-2.60;99.90;;;;;;5060194;28;20578;-79
2024/01/11 07:25:58;;;;;;;55.83;27.35;;;-2.60;99.90;;;;;;5052203;28;20381;-83
2024/01/11 07:28:25;;;;;;;62.88;28.67;;;-2.60;99.90;;;;;;5052856;28;20053;-84
2024/01/11 07:30:52;;;;;;;66.03;27.48;;;-2.00;99.90;;;;;;5061377;28;20048;-81
2024/01/11 07:33:19;;;;;;;67.88;28.58;;;-2.50;99.90;;;;;;5061184;28;20404;-76
2024/01/11 07:35:45;;;;;;;57.72;26.60;;;-2.50;99.90;;;;;;5066233;28;20045;-77
2024/01/11 07:38:11;;;;;;;67.97;30.05;;;-2.50;99.90;;;;;;5069691;28;20044;-76
2024/01/11 07:40:37;;;;;;;65.75;29.05;;;-2.50;99.90;;;;;;5069018;28;20041;-76
2024/01/11 07:43:04;;;;;;;57.45;26.80;;;-1.30;99.90;;;;;;5059079;28;20388;-76
2024/01/11 07:45:30;;;;;;;60.03;26.40;;;-2.40;99.90;;;;;;5059443;28;20438;-77
2024/01/11 07:47:56;;;;;;;60.10;27.50;;;-2.40;99.90;;;;;;5061746;28;20183;-79
2024/01/11 07:50:22;;;;;;;60.78;26.70;;;-2.40;99.90;;;;;;5073430;28;20051;-77
2024/01/11 07:52:47;;;;;;;56.80;26.58;;;-2.30;99.90;;;;;;5065542;28;20392;-77
2024/01/11 07:55:13;;;;;;;62.50;28.35;;;-2.30;99.90;;;;;;5059572;28;20053;-78
2024/01/11 07:57:39;;;;;;;62.22;28.52;;;-1.70;99.90;;;;;;5074613;28;20105;-77
2024/01/11 08:00:08;;;;;;;64.90;28.75;;;-2.30;99.90;;;;;;5078790;28;20044;-77
2024/01/11 08:02:34;;;;;;;64.13;29.58;;;-2.30;99.90;;;;;;5072255;28;20045;-77
2024/01/11 08:05:00;;;;;;;64.22;29.77;;;-2.30;99.90;;;;;;5058419;28;20052;-78
2024/01/11 08:07:38;;;;;;;52.00;23.83;;;-2.20;99.90;;;;;;5059536;28;20041;-77
2024/01/11 08:10:06;;;;;;;63.60;29.00;;;-2.20;99.90;;;;;;5071299;28;20037;-78
2024/01/11 08:12:32;;;;;;;55.70;26.20;;;-2.20;99.90;;;;;;5065494;28;20045;-77
2024/01/11 08:14:57;;;;;;;61.95;27.02;;;-2.10;99.90;;;;;;5057882;28;20052;-77
2024/01/11 08:17:23;;;;;;;55.65;25.73;;;-1.20;99.90;;;;;;5066601;28;20072;-77
2024/01/11 08:19:49;;;;;;;58.83;26.98;;;-2.10;99.90;;;;;;5041100;28;20048;-77
2024/01/11 08:22:15;;;;;;;58.33;28.20;;;-2.00;99.90;;;;;;5068305;28;20407;-77
2024/01/11 08:24:41;;;;;;;69.43;29.95;;;-1.70;99.90;;;;;;5059467;28;20036;-77
2024/01/11 08:27:07;;;;;;;65.13;27.58;;;-1.40;99.90;;;;;;5077984;28;20100;-77
2024/01/11 08:29:33;;;;;;;58.63;26.70;;;-2.00;99.90;;;;;;5068769;28;20501;-77
2024/01/11 08:31:59;;;;;;;58.17;27.85;;;-2.00;99.90;;;;;;5058211;28;20466;-77
2024/01/11 08:34:26;;;;;;;63.75;28.20;;;-1.90;99.90;;;;;;5064701;28;20887;-75
2024/01/11 08:36:52;;;;;;;62.95;28.58;;;-1.60;99.90;;;;;;5069525;28;20049;-75
2024/01/11 08:39:17;;;;;;;69.43;29.17;;;-1.00;99.90;;;;;;5062110;28;20610;-78
2024/01/11 08:41:43;;;;;;;61.65;28.23;;;-1.80;99.90;;;;;;5078128;28;20040;-76
2024/01/11 08:44:09;;;;;;;66.55;28.65;;;-0.80;99.90;;;;;;5078718;28;20462;-76
2024/01/11 08:46:36;;;;;;;66.22;28.88;;;-1.80;99.90;;;;;;5077789;28;20044;-76
2024/01/11 08:49:05;;;;;;;52.45;25.75;;;-1.80;99.90;;;;;;5073838;28;20045;-75
2024/01/11 08:51:32;;;;;;;77.07;34.53;;;-1.70;99.90;;;;;;5073544;28;20513;-77
2024/01/11 08:53:58;;;;;;;65.70;31.50;;;-0.50;99.90;;;;;;5074259;28;20048;-77
2024/01/11 08:56:24;;;;;;;66.47;29.73;;;-1.30;99.90;;;;;;5058162;28;20048;-79
2024/01/11 08:58:49;;;;;;;63.35;28.77;;;-1.60;99.90;;;;;;5075903;28;20052;-80
2024/01/11 09:01:15;;;;;;;61.83;27.70;;;-1.50;99.90;;;;;;5075762;28;20040;-81
2024/01/11 09:03:41;;;;;;;63.47;28.20;;;-1.50;99.90;;;;;;5074966;28;20048;-81
2024/01/11 09:06:08;;;;;;;58.70;27.45;;;-1.50;99.90;;;;;;5057869;28;20486;-81
2024/01/11 09:08:33;;;;;;;58.03;26.58;;;-1.50;99.90;;;;;;5074205;28;20045;-80
2024/01/11 09:11:00;;;;;;;62.55;28.75;;;-0.40;99.90;;;;;;5062422;28;20055;-81
2024/01/11 09:13:27;;;;;;;59.00;26.75;;;-1.00;99.90;;;;;;5055063;28;20053;-80
2024/01/11 09:15:53;;;;;;;57.50;27.67;;;-1.30;99.90;;;;;;5054748;28;20049;-80
2024/01/11 09:18:20;;;;;;;63.33;29.00;;;-1.30;99.90;;;;;;5054912;28;20049;-80
2024/01/11 09:20:47;;;;;;;55.20;27.00;;;0.20;99.90;;;;;;5054424;28;20057;-80
2024/01/11 09:23:12;;;;;;;58.20;27.13;;;-0.60;99.90;;;;;;5054858;28;20131;-82
2024/01/11 09:25:38;;;;;;;55.25;26.80;;;-1.20;99.90;;;;;;5075245;28;20128;-81
2024/01/11 09:28:04;;;;;;;58.15;27.55;;;-0.80;99.90;;;;;;5075229;28;20040;-80
2024/01/11 09:30:30;;;;;;;59.75;28.90;;;-1.10;99.90;;;;;;5074629;28;20121;-80
2024/01/11 09:32:55;;;;;;;59.15;26.95;;;-1.10;99.90;;;;;;5075188;28;20040;-81
2024/01/11 09:35:24;;;;;;;63.85;27.05;;;-1.10;99.90;;;;;;5074931;28;20044;-80
2024/01/11 09:37:51;;;;;;;55.83;27.42;;;-1.00;99.90;;;;;;5074137;28;20048;-82
2024/01/11 09:40:18;;;;;;;55.65;26.95;;;-1.00;99.90;;;;;;5074817;28;20113;-81
2024/01/11 09:42:44;;;;;;;64.22;29.90;;;-0.90;99.90;;;;;;5074694;28;20527;-83
2024/01/11 09:45:13;;;;;;;61.78;27.38;;;-0.90;99.90;;;;;;5074864;28;20041;-82
2024/01/11 09:47:39;;;;;;;59.47;27.15;;;-0.80;99.90;;;;;;5063133;28;20048;-81
2024/01/11 09:50:07;;;;;;;61.75;26.83;;;-0.80;99.90;;;;;;5054264;28;20461;-82
2024/01/11 09:52:32;;;;;;;75.43;34.63;;;-0.70;99.90;;;;;;5054890;28;20388;-82
2024/01/11 09:55:01;;;;;;;70.72;30.35;;;-0.30;99.90;;;;;;5053713;28;20164;-82
2024/01/11 09:57:35;;;;;;;52.70;24.58;;;0.30;99.90;;;;;;5054508;28;20550;-82
2024/01/11 10:00:07;;;;;;;65.20;29.92;;;-0.60;99.90;;;;;;5054215;28;20072;-82
2024/01/11 10:02:33;;;;;;;56.13;26.70;;;-0.50;99.90;;;;;;5054676;28;20045;-82
2024/01/11 10:04:59;;;;;;;56.78;26.83;;;-0.40;99.90;;;;;;5053410;28;20041;-82
2024/01/11 10:07:25;;;;;;;62.22;29.27;;;-0.40;99.90;;;;;;5053271;28;20080;-82
2024/01/11 10:09:51;;;;;;;124.25;50.92;;;-0.40;99.90;;;;;;5036811;28;20105;-82
2024/01/11 10:12:24;;;;;;;65.00;29.85;;;-0.20;99.90;;;;;;5054437;28;20053;-82
2024/01/11 10:14:51;;;;;;;72.68;34.65;;;-0.30;99.90;;;;;;5053140;28;20052;-82
2024/01/11 10:17:18;;;;;;;57.35;26.83;;;-0.20;99.90;;;;;;5054244;28;20045;-82
2024/01/11 10:19:43;;;;;;;57.75;26.35;;;-0.20;99.90;;;;;;5054226;28;20373;-82
2024/01/11 10:22:12;;;;;;;52.55;25.70;;;-0.20;99.90;;;;;;5054246;28;20048;-83
2024/01/11 10:24:39;;;;;;;50.08;24.65;;;0.10;99.90;;;;;;5054247;28;20071;-82
2024/01/11 10:27:08;;;;;;;53.97;24.98;;;0.50;99.90;;;;;;5070600;28;20499;-82
2024/01/11 10:29:36;;;;;;;62.38;29.10;;;-0.10;99.90;;;;;;5074098;28;20045;-83
2024/01/11 10:32:03;;;;;;;48.72;23.80;;;0.30;99.90;;;;;;5073668;28;20476;-82
2024/01/11 10:34:29;;;;;;;57.47;28.20;;;0.00;99.90;;;;;;5073853;28;20044;-83
2024/01/11 10:36:54;;;;;;;67.70;31.35;;;0.00;99.90;;;;;;5073786;28;20490;-84
2024/01/11 10:39:27;;;;;;;56.70;27.85;;;0.10;99.90;;;;;;5074843;28;20048;-83
2024/01/11 10:42:05;;;;;;;53.67;26.77;;;0.60;99.90;;;;;;5064359;28;20427;-83
2024/01/11 10:44:34;;;;;;;50.90;25.38;;;0.20;99.90;;;;;;5052175;28;20080;-82
2024/01/11 10:47:04;;;;;;;93.80;44.22;;;0.20;99.90;;;;;;5051419;28;20384;-83
2024/01/11 10:49:32;;;;;;;63.70;29.38;;;0.20;99.90;;;;;;5053211;28;20049;-80
2024/01/11 10:52:04;;;;;;;54.38;26.95;;;0.90;99.90;;;;;;5053159;28;20053;-81
2024/01/11 10:54:31;;;;;;;54.28;26.13;;;0.30;99.90;;;;;;5052019;28;20393;-80
2024/01/11 10:57:02;;;;;;;59.00;27.90;;;0.30;99.90;;;;;;5053537;28;20080;-81
2024/01/11 10:59:31;;;;;;;44.80;21.60;;;0.30;99.90;;;;;;5068963;28;20045;-82
2024/01/11 11:02:02;;;;;;;55.08;28.63;;;1.70;99.90;;;;;;5073570;28;20090;-81
2024/01/11 11:04:30;;;;;;;47.95;26.17;;;0.40;99.90;;;;;;5072530;28;20052;-82
2024/01/11 11:06:59;;;;;;;47.58;23.25;;;1.40;99.90;;;;;;5053865;28;20049;-82
2024/01/11 11:09:25;;;;;;;44.55;23.48;;;0.40;99.90;;;;;;5053664;28;20373;-81
2024/01/11 11:11:56;;;;;;;43.22;21.67;;;0.50;99.90;;;;;;5051543;28;20606;-81
2024/01/11 11:14:22;;;;;;;50.33;27.02;;;1.10;99.90;;;;;;5053390;28;20040;-81
2024/01/11 11:16:48;;;;;;;47.63;23.85;;;1.10;99.90;;;;;;5052892;28;20141;-81
2024/01/11 11:19:15;;;;;;;53.38;27.02;;;1.10;99.90;;;;;;5053057;28;20107;-81
2024/01/11 11:21:44;;;;;;;44.28;21.85;;;0.70;99.90;;;;;;5053330;28;20059;-81
2024/01/11 11:24:11;;;;;;;44.13;21.85;;;1.20;99.90;;;;;;5053235;28;20141;-81
2024/01/11 11:26:37;;;;;;;44.03;20.70;;;0.60;99.90;;;;;;5061916;28;20040;-81
2024/01/11 11:29:05;;;;;;;42.10;21.40;;;0.60;99.90;;;;;;5073264;28;20095;-82
2024/01/11 11:31:53;;;;;;;46.25;22.35;;;1.20;99.90;;;;;;5054608;28;20440;-83
2024/01/11 11:34:44;;;;;;;43.50;22.38;;;0.70;99.90;;;;;;5053204;28;20052;-82
2024/01/11 11:37:10;;;;;;;51.22;22.67;;;0.70;99.90;;;;;;5053247;28;20140;-82
2024/01/11 11:39:37;;;;;;;45.70;22.85;;;0.80;99.90;;;;;;5052964;28;20182;-82
2024/01/11 11:42:04;;;;;;;44.38;22.27;;;0.80;99.90;;;;;;5060044;28;20063;-81
2024/01/11 11:44:30;;;;;;;41.25;21.02;;;0.80;99.90;;;;;;5071599;28;20110;-88
2024/01/11 11:47:16;;;;;;;45.78;21.80;;;0.80;99.90;;;;;;5069217;28;20057;-82
2024/01/11 11:50:10;;;;;;;46.17;22.38;;;1.30;99.90;;;;;;5053027;28;20099;-82
2024/01/11 11:52:41;;;;;;;38.33;20.13;;;0.80;99.90;;;;;;5053018;28;20045;-82
2024/01/11 11:55:08;;;;;;;48.22;23.13;;;0.90;99.90;;;;;;5052769;28;20095;-81
2024/01/11 11:57:35;;;;;;;56.28;25.95;;;0.90;99.90;;;;;;5051676;28;20503;-82
2024/01/11 12:00:06;;;;;;;50.03;24.23;;;1.90;99.90;;;;;;5052616;28;20084;-81
2024/01/11 12:02:35;;;;;;;55.10;27.08;;;0.90;99.90;;;;;;5065340;28;20036;-82
2024/01/11 12:05:02;;;;;;;42.72;22.88;;;1.00;99.90;;;;;;5072850;28;20047;-82
2024/01/11 12:07:27;;;;;;;44.50;22.23;;;0.90;99.90;;;;;;5072614;28;20048;-82
2024/01/11 12:09:53;;;;;;;44.97;22.13;;;1.00;99.90;;;;;;5067829;28;20048;-83
2024/01/11 12:12:20;;;;;;;47.00;23.65;;;1.00;99.90;;;;;;5052513;28;20037;-82
2024/01/11 12:14:47;;;;;;;42.17;21.42;;;1.00;99.90;;;;;;5051401;28;20053;-83
2024/01/11 12:17:13;;;;;;;46.70;25.08;;;1.00;99.90;;;;;;5052697;28;20041;-82
2024/01/11 12:19:39;;;;;;;46.22;22.92;;;1.00;99.90;;;;;;5051542;28;20122;-82
2024/01/11 12:22:04;;;;;;;42.30;21.48;;;1.60;99.90;;;;;;5052697;28;20111;-82
2024/01/11 12:24:31;;;;;;;43.22;21.63;;;1.00;99.90;;;;;;5062705;28;20097;-82
2024/01/11 12:26:57;;;;;;;47.47;24.73;;;1.00;99.90;;;;;;5076300;28;20396;-82